Time;durP1;ratioP1;P1;durP2;ratioP2;P2;SDS_P1;SDS_P2;PMS_P1;PMS_P2;Temp;Humidity;BMP_temperature;BMP_pressure;BME280_temperature;BME280_humidity;BME280_pressure;Samples;Min_cycle;Max_cycle;Signal;HPM_P1;HPM_P2
2022/11/02 06:57:44;;;;;;;8.13;4.78;;;;;;;;;;5331185;23;20429;-82
2022/11/02 10:48:00;;;;;;;0.40;0.40;;;;;;;;;;4954243;28;20145;-92
2022/11/02 10:51:04;;;;;;;0.40;0.40;;;;;;;;;;4958260;29;20058;-91
2022/11/02 10:53:35;;;;;;;9.45;3.95;;;;;;;;;;4937369;28;20397;-91
2022/11/02 10:56:20;;;;;;;7.25;4.18;;;;;;;;;;4958786;28;20119;-91
2022/11/02 10:59:23;;;;;;;7.85;3.38;;;;;;;;;;4958835;28;20019;-92
2022/11/02 11:02:06;;;;;;;6.22;3.28;;;;;;;;;;4954544;28;20074;-90
2022/11/02 11:04:32;;;;;;;7.65;3.80;;;;;;;;;;4958016;28;20078;-77
2022/11/02 11:07:06;;;;;;;9.88;3.63;;;;;;;;;;4958342;28;20139;-91
2022/11/02 11:09:56;;;;;;;10.05;3.65;;;;;;;;;;4958400;28;20031;-89
2022/11/02 11:12:30;;;;;;;5.78;3.17;;;;;;;;;;4958270;28;20091;-80
2022/11/02 11:15:01;;;;;;;12.65;4.15;;;;;;;;;;4957787;28;20490;-81
2022/11/02 11:17:37;;;;;;;6.72;3.10;;;;;;;;;;4959229;28;20028;-96
2022/11/02 11:20:07;;;;;;;9.02;3.80;;;;;;;;;;4958301;28;20390;-81
2022/11/02 11:23:26;;;;;;;11.82;3.75;;;;;;;;;;4959809;28;20062;-90
2022/11/02 11:26:00;;;;;;;10.80;4.57;;;;;;;;;;4901128;29;20033;-90
2022/11/02 11:28:32;;;;;;;7.22;3.47;;;;;;;;;;4948788;28;20042;-85
2022/11/02 11:31:17;;;;;;;6.63;3.80;;;;;;;;;;4957956;28;20027;-81
2022/11/02 11:33:50;;;;;;;5.85;4.40;;;;;;;;;;4970045;28;20027;-82
2022/11/02 11:36:23;;;;;;;11.77;4.10;;;;;;;;;;4977242;28;20030;-91
2022/11/02 11:38:49;;;;;;;7.95;4.03;;;;;;;;;;4977166;28;20509;-80
2022/11/02 11:41:16;;;;;;;8.77;4.20;;;;;;;;;;4976683;28;20031;-92
2022/11/02 11:43:43;;;;;;;7.00;4.13;;;;;;;;;;4976786;28;20054;-81
2022/11/02 11:46:11;;;;;;;8.40;3.90;;;;;;;;;;4976968;28;20074;-86
2022/11/02 11:48:40;;;;;;;9.18;4.28;;;;;;;;;;4989624;28;20038;-84
2022/11/02 11:51:25;;;;;;;;;;;;;;;;;;4941577;29;20073;-88
2022/11/02 11:54:12;;;;;;;10.45;3.72;;;;;;;;;;4957266;28;19918;-89
2022/11/02 11:56:37;;;;;;;6.78;3.65;;;;;;;;;;4957698;29;20098;-95
2022/11/02 11:59:02;;;;;;;10.65;3.58;;;;;;;;;;4956621;28;20054;-81
2022/11/02 12:01:37;;;;;;;7.70;3.80;;;;;;;;;;4957432;29;20035;-78
2022/11/02 12:04:03;;;;;;;7.05;3.95;;;;;;;;;;4940120;29;20102;-87
2022/11/02 12:07:03;;;;;;;9.85;4.13;;;;;;;;;;4958964;29;20051;-85
2022/11/02 12:09:55;;;;;;;9.82;3.90;;;;;;;;;;4957042;29;20098;-85
2022/11/02 12:12:49;;;;;;;8.93;3.60;;;;;;;;;;4957270;29;20485;-83
2022/11/02 12:15:42;;;;;;;9.35;4.03;;;;;;;;;;4957213;29;20031;-81
2022/11/02 12:18:31;;;;;;;8.30;4.40;;;;;;;;;;4958903;29;20035;-84
2022/11/02 12:21:15;;;;;;;;;;;;;;;;;;4940587;29;20034;-80
2022/11/02 12:24:17;;;;;;;4.85;3.10;;;;;;;;;;4956986;28;19914;-84
2022/11/02 12:27:02;;;;;;;8.27;3.58;;;;;;;;;;4956818;29;20410;-85
2022/11/02 12:30:01;;;;;;;6.43;3.20;;;;;;;;;;4957529;29;20062;-85
2022/11/02 12:32:51;;;;;;;10.43;4.00;;;;;;;;;;4941728;29;20027;-86
2022/11/02 12:35:34;;;;;;;7.55;3.55;;;;;;;;;;4957547;29;20467;-88
2022/11/02 12:38:53;;;;;;;8.60;4.03;;;;;;;;;;4956400;29;20038;-87
2022/11/02 12:41:42;;;;;;;12.00;3.42;;;;;;;;;;4878716;29;20037;-88
2022/11/02 12:44:56;;;;;;;8.63;4.50;;;;;;;;;;4879529;29;20040;-87
2022/11/02 12:47:47;;;;;;;9.68;4.70;;;;;;;;;;4923209;29;20598;-84
2022/11/02 12:53:42;;;;;;;12.68;4.30;;;;;;;;;;4957218;28;20050;-87
2022/11/02 12:56:15;;;;;;;7.97;4.10;;;;;;;;;;4956356;29;20439;-84
2022/11/02 12:58:41;;;;;;;9.07;4.15;;;;;;;;;;4956402;29;20049;-89
2022/11/02 13:01:33;;;;;;;9.55;3.97;;;;;;;;;;4956412;29;20039;-87
2022/11/02 13:04:14;;;;;;;10.57;5.00;;;;;;;;;;4956951;28;20497;-89
2022/11/02 13:06:43;;;;;;;8.38;4.05;;;;;;;;;;4956753;29;20090;-88
2022/11/02 13:09:23;;;;;;;9.55;4.18;;;;;;;;;;4956043;28;20031;-90
2022/11/02 13:11:55;;;;;;;8.85;4.60;;;;;;;;;;4978427;28;20019;-87
2022/11/02 13:14:23;;;;;;;8.50;4.57;;;;;;;;;;4981215;28;20027;-85
2022/11/02 13:17:01;;;;;;;8.57;4.25;;;;;;;;;;4975137;28;20027;-84
2022/11/02 13:19:37;;;;;;;13.05;4.68;;;;;;;;;;4972790;28;20081;-88
2022/11/02 13:22:03;;;;;;;7.72;4.32;;;;;;;;;;4984105;28;20023;-84
2022/11/02 13:24:44;;;;;;;10.65;4.88;;;;;;;;;;4976680;28;20027;-83
2022/11/02 13:27:25;;;;;;;9.07;4.10;;;;;;;;;;4975255;28;20115;-90
2022/11/02 13:29:53;;;;;;;9.77;4.20;;;;;;;;;;4975059;28;20422;-90
2022/11/02 13:32:39;;;;;;;11.27;4.07;;;;;;;;;;4975064;28;20027;-90
2022/11/02 13:35:32;;;;;;;7.68;4.10;;;;;;;;;;4974812;28;20438;-90
2022/11/02 13:38:23;;;;;;;10.25;4.72;;;;;;;;;;4955817;29;20054;-83
2022/11/02 13:41:04;;;;;;;5.72;4.13;;;;;;;;;;4955333;29;20023;-89
2022/11/02 13:43:46;;;;;;;5.47;3.83;;;;;;;;;;4966899;28;20034;-83
2022/11/02 13:46:40;;;;;;;10.25;4.40;;;;;;;;;;4974704;28;20056;-88
2022/11/02 13:49:25;;;;;;;11.68;5.53;;;;;;;;;;4968941;28;20062;-90
2022/11/02 13:52:00;;;;;;;11.73;5.97;;;;;;;;;;4975042;28;20034;-89
2022/11/02 13:54:37;;;;;;;9.10;4.85;;;;;;;;;;4974701;28;20023;-83
2022/11/02 13:57:03;;;;;;;8.32;4.78;;;;;;;;;;4974548;28;20463;-84
2022/11/02 13:59:33;;;;;;;7.75;4.97;;;;;;;;;;4974668;28;20043;-89
2022/11/02 14:02:01;;;;;;;11.80;5.80;;;;;;;;;;4974350;28;20023;-84
2022/11/02 14:04:35;;;;;;;10.23;5.18;;;;;;;;;;4974482;28;20493;-85
2022/11/02 14:07:05;;;;;;;10.07;4.28;;;;;;;;;;4978025;28;20429;-84
2022/11/02 14:09:38;;;;;;;11.82;5.75;;;;;;;;;;4993726;28;20026;-89
2022/11/02 14:12:16;;;;;;;10.63;5.68;;;;;;;;;;4976502;28;20066;-83
2022/11/02 14:14:42;;;;;;;10.10;5.22;;;;;;;;;;4980791;28;20470;-84
2022/11/02 14:17:12;;;;;;;13.98;6.35;;;;;;;;;;4974621;28;20031;-83
2022/11/02 14:19:47;;;;;;;10.77;6.40;;;;;;;;;;4974594;28;20033;-84
2022/11/02 14:22:15;;;;;;;11.48;6.50;;;;;;;;;;4976900;28;20034;-84
2022/11/02 14:24:40;;;;;;;9.15;5.60;;;;;;;;;;4941120;28;20082;-89
2022/11/02 14:27:08;;;;;;;12.73;5.97;;;;;;;;;;4961543;28;20501;-90
2022/11/02 14:29:46;;;;;;;8.70;5.18;;;;;;;;;;4987003;28;20057;-88
2022/11/02 14:32:21;;;;;;;12.57;7.13;;;;;;;;;;4970905;28;20031;-91
2022/11/02 14:35:14;;;;;;;9.38;6.38;;;;;;;;;;4973580;28;20076;-84
2022/11/02 14:38:17;;;;;;;14.43;7.70;;;;;;;;;;4966714;28;20046;-86
2022/11/02 14:40:54;;;;;;;13.38;6.95;;;;;;;;;;4971051;28;20106;-82
2022/11/02 14:43:46;;;;;;;12.45;8.00;;;;;;;;;;4959040;29;20035;-87
2022/11/02 14:46:27;;;;;;;14.00;7.47;;;;;;;;;;4992169;28;20029;-89
2022/11/02 14:48:57;;;;;;;9.07;6.38;;;;;;;;;;4996940;28;20050;-82
2022/11/02 14:51:25;;;;;;;;;;;;;;;;;;4995741;28;20373;-89
2022/11/02 14:53:58;;;;;;;13.75;6.93;;;;;;;;;;4977580;28;19914;-82
2022/11/02 14:56:55;;;;;;;12.02;7.15;;;;;;;;;;4977734;28;20042;-82
2022/11/02 14:59:37;;;;;;;15.85;8.85;;;;;;;;;;4958509;29;20390;-82
2022/11/02 15:02:14;;;;;;;16.55;8.90;;;;;;;;;;4958726;29;20359;-89
2022/11/02 15:05:07;;;;;;;14.15;8.48;;;;;;;;;;4958243;28;20039;-91
2022/11/02 15:07:47;;;;;;;15.25;9.27;;;;;;;;;;4956071;29;20035;-82
2022/11/02 15:10:16;;;;;;;14.77;8.93;;;;;;;;;;4972834;28;20037;-83
2022/11/02 15:12:48;;;;;;;12.35;8.38;;;;;;;;;;4965420;28;20031;-89
2022/11/02 15:15:28;;;;;;;17.17;9.50;;;;;;;;;;4977610;28;20037;-88
2022/11/02 15:18:14;;;;;;;11.63;8.18;;;;;;;;;;4977628;28;20022;-88
2022/11/02 15:20:42;;;;;;;13.57;7.97;;;;;;;;;;4977857;28;20027;-87
2022/11/02 15:23:22;;;;;;;14.20;8.10;;;;;;;;;;4977032;28;20109;-88
2022/11/02 15:25:51;;;;;;;16.05;8.50;;;;;;;;;;4975420;28;20030;-88
2022/11/02 15:28:25;;;;;;;15.10;8.63;;;;;;;;;;4976751;28;20031;-84
2022/11/02 15:30:54;;;;;;;15.20;7.53;;;;;;;;;;4990333;28;20061;-85
2022/11/02 15:33:41;;;;;;;12.98;6.60;;;;;;;;;;4987050;28;20112;-87
2022/11/02 15:36:16;;;;;;;13.50;7.38;;;;;;;;;;4978643;28;20082;-84
2022/11/02 15:38:46;;;;;;;11.57;7.25;;;;;;;;;;4958608;28;20029;-90
2022/11/02 15:41:27;;;;;;;10.90;6.28;;;;;;;;;;4972252;28;20023;-84
2022/11/02 15:44:23;;;;;;;11.88;6.90;;;;;;;;;;4978329;28;20018;-86
2022/11/02 15:47:05;;;;;;;10.07;7.10;;;;;;;;;;4963770;28;20390;-92
2022/11/02 15:49:55;;;;;;;11.85;6.10;;;;;;;;;;4977122;28;20047;-84
2022/11/02 15:52:39;;;;;;;10.38;6.72;;;;;;;;;;4976795;28;20062;-83
2022/11/02 15:55:12;;;;;;;12.55;6.72;;;;;;;;;;4977184;28;20034;-84
2022/11/02 15:58:08;;;;;;;9.95;6.35;;;;;;;;;;4976834;28;20115;-90
2022/11/02 16:00:33;;;;;;;8.75;5.78;;;;;;;;;;4981783;28;20058;-88
2022/11/02 16:03:03;;;;;;;9.43;5.80;;;;;;;;;;4964165;28;20438;-90
2022/11/02 16:05:37;;;;;;;;;;;;;;;;;;4977043;28;20031;-89
2022/11/02 16:08:03;;;;;;;10.80;5.63;;;;;;;;;;4976591;28;19914;-85
2022/11/02 16:10:31;;;;;;;9.57;5.35;;;;;;;;;;4976429;28;20150;-87
2022/11/02 16:13:06;;;;;;;9.15;5.15;;;;;;;;;;4976433;28;20517;-85
2022/11/02 16:15:32;;;;;;;9.77;5.50;;;;;;;;;;4976562;28;20470;-89
2022/11/02 16:17:57;;;;;;;7.85;5.30;;;;;;;;;;4959177;28;20058;-84
2022/11/02 16:20:32;;;;;;;14.18;5.88;;;;;;;;;;4976595;28;20027;-89
2022/11/02 16:23:01;;;;;;;13.13;7.32;;;;;;;;;;4978757;28;20548;-88
2022/11/02 16:25:55;;;;;;;10.25;6.50;;;;;;;;;;4969559;28;20026;-87
2022/11/02 16:28:24;;;;;;;10.35;6.65;;;;;;;;;;4981905;28;20474;-84
2022/11/02 16:31:03;;;;;;;12.13;8.13;;;;;;;;;;4985241;28;20027;-84
2022/11/02 16:33:53;;;;;;;10.45;5.60;;;;;;;;;;4966439;28;20113;-83
2022/11/02 16:36:24;;;;;;;11.30;5.60;;;;;;;;;;4983207;28;20069;-89
2022/11/02 16:39:06;;;;;;;7.72;4.80;;;;;;;;;;4983674;28;20026;-83
2022/11/02 16:41:33;;;;;;;8.32;5.00;;;;;;;;;;4984345;28;20019;-91
2022/11/02 16:44:08;;;;;;;12.80;4.60;;;;;;;;;;4965430;28;20046;-83
2022/11/02 16:46:41;;;;;;;9.68;5.05;;;;;;;;;;4975615;28;20110;-90
2022/11/02 16:49:10;;;;;;;8.30;4.90;;;;;;;;;;4975931;28;20086;-91
2022/11/02 16:51:36;;;;;;;10.30;5.05;;;;;;;;;;4976241;28;20133;-83
2022/11/02 16:54:24;;;;;;;8.00;4.88;;;;;;;;;;4976113;28;20088;-83
2022/11/02 16:56:51;;;;;;;7.88;5.18;;;;;;;;;;4975554;28;20097;-89
2022/11/02 16:59:16;;;;;;;9.38;4.90;;;;;;;;;;4976054;28;20054;-87
2022/11/02 17:01:43;;;;;;;11.38;6.20;;;;;;;;;;4975756;28;20029;-92
2022/11/02 17:04:21;;;;;;;9.73;7.88;;;;;;;;;;4976284;28;20114;-92
2022/11/02 17:06:49;;;;;;;10.32;6.15;;;;;;;;;;4977706;28;20037;-91
2022/11/02 17:09:27;;;;;;;10.93;5.93;;;;;;;;;;4975927;28;20031;-92
2022/11/02 17:11:57;;;;;;;10.02;5.35;;;;;;;;;;4958349;28;20034;-92
2022/11/02 17:14:23;;;;;;;11.75;5.35;;;;;;;;;;4976064;28;20049;-91
2022/11/02 17:17:23;;;;;;;13.30;9.93;;;;;;;;;;4975668;28;20038;-90
2022/11/02 17:20:03;;;;;;;17.65;13.23;;;;;;;;;;4974859;28;20034;-83
2022/11/02 17:22:29;;;;;;;12.82;9.80;;;;;;;;;;4975577;28;20238;-85
2022/11/02 17:25:22;;;;;;;10.55;6.50;;;;;;;;;;4976352;28;20031;-91
2022/11/02 17:27:50;;;;;;;9.15;6.75;;;;;;;;;;4975954;28;20089;-84
2022/11/02 17:30:34;;;;;;;9.13;5.22;;;;;;;;;;4975811;28;20026;-83
2022/11/02 17:33:07;;;;;;;10.93;7.00;;;;;;;;;;4976555;28;20031;-90
2022/11/02 17:35:33;;;;;;;16.27;11.07;;;;;;;;;;4976467;28;20086;-91
2022/11/02 17:38:00;;;;;;;10.32;6.75;;;;;;;;;;4975882;28;20065;-92
2022/11/02 17:40:25;;;;;;;7.32;6.53;;;;;;;;;;4975402;28;20183;-91
2022/11/02 17:42:57;;;;;;;9.55;6.45;;;;;;;;;;4975509;28;20059;-91
2022/11/02 17:45:26;;;;;;;9.73;7.28;;;;;;;;;;4975109;28;20034;-83
2022/11/02 17:47:51;;;;;;;9.77;7.00;;;;;;;;;;4975023;28;20041;-86
2022/11/02 17:50:18;;;;;;;11.05;8.20;;;;;;;;;;4975385;28;20026;-92
2022/11/02 17:52:43;;;;;;;12.43;8.73;;;;;;;;;;4975604;28;20470;-86
2022/11/02 17:55:14;;;;;;;14.13;7.78;;;;;;;;;;4975159;28;20044;-89
2022/11/02 17:57:39;;;;;;;14.23;10.68;;;;;;;;;;4978188;28;20035;-85
2022/11/02 18:00:06;;;;;;;16.15;10.85;;;;;;;;;;4979003;28;20487;-88
2022/11/02 18:02:32;;;;;;;15.77;11.43;;;;;;;;;;4978564;28;20027;-88
2022/11/02 18:04:57;;;;;;;11.88;8.32;;;;;;;;;;4961173;28;20026;-85
2022/11/02 18:07:23;;;;;;;12.35;8.05;;;;;;;;;;4978689;28;20058;-87
2022/11/02 18:09:48;;;;;;;11.77;7.82;;;;;;;;;;4978502;28;20487;-83
2022/11/02 18:12:14;;;;;;;14.88;8.95;;;;;;;;;;4978305;28;20030;-82
2022/11/02 18:14:40;;;;;;;10.85;7.63;;;;;;;;;;4960880;28;20042;-81
2022/11/02 18:17:06;;;;;;;9.18;6.25;;;;;;;;;;4978530;28;20023;-82
2022/11/02 18:19:32;;;;;;;11.60;6.88;;;;;;;;;;4979720;28;20105;-86
2022/11/02 18:21:58;;;;;;;10.93;7.13;;;;;;;;;;4980185;28;20412;-87
2022/11/02 18:24:24;;;;;;;15.70;8.05;;;;;;;;;;4960999;28;20027;-88
2022/11/02 18:26:49;;;;;;;10.90;7.50;;;;;;;;;;4960990;28;20496;-87
2022/11/02 18:29:16;;;;;;;19.92;13.43;;;;;;;;;;4978328;28;20382;-88
2022/11/02 18:31:41;;;;;;;17.08;12.45;;;;;;;;;;4960874;28;20532;-87
2022/11/02 18:34:08;;;;;;;17.20;10.48;;;;;;;;;;4960616;28;20110;-88
2022/11/02 18:36:36;;;;;;;18.17;10.15;;;;;;;;;;4960760;28;20023;-87
2022/11/02 18:39:02;;;;;;;13.95;10.73;;;;;;;;;;4978300;28;20030;-89
2022/11/02 18:41:30;;;;;;;13.90;11.60;;;;;;;;;;4960885;28;20493;-87
2022/11/02 18:44:03;;;;;;;12.70;6.95;;;;;;;;;;4978303;28;20031;-86
2022/11/02 18:46:30;;;;;;;9.32;6.78;;;;;;;;;;4963874;28;20038;-87
2022/11/02 18:48:56;;;;;;;15.35;7.68;;;;;;;;;;4977537;28;20046;-87
2022/11/02 18:51:22;;;;;;;13.27;8.27;;;;;;;;;;4977820;28;20030;-86
2022/11/02 18:53:59;;;;;;;12.07;8.40;;;;;;;;;;4977618;28;20089;-86
2022/11/02 18:56:25;;;;;;;14.20;9.73;;;;;;;;;;4977667;28;20031;-86
2022/11/02 18:58:51;;;;;;;11.13;8.32;;;;;;;;;;4977632;28;20034;-85
2022/11/02 19:01:21;;;;;;;14.40;9.30;;;;;;;;;;4977802;28;20018;-84
2022/11/02 19:03:51;;;;;;;20.33;10.75;;;;;;;;;;4977670;28;20397;-83
2022/11/02 19:09:17;;;;;;;15.88;9.95;;;;;;;;;;4977409;28;20437;-83
2022/11/02 19:11:45;;;;;;;12.55;8.98;;;;;;;;;;4997321;28;20117;-92
2022/11/02 19:14:11;;;;;;;11.98;9.18;;;;;;;;;;4997202;28;20023;-91
2022/11/02 19:16:36;;;;;;;11.63;7.75;;;;;;;;;;5004085;28;20014;-88
2022/11/02 19:19:02;;;;;;;11.48;7.20;;;;;;;;;;5006645;28;20022;-86
2022/11/02 19:21:28;;;;;;;9.85;6.45;;;;;;;;;;4997340;28;20030;-85
2022/11/02 19:23:54;;;;;;;8.40;6.10;;;;;;;;;;4996740;28;20454;-83
2022/11/02 19:26:19;;;;;;;12.27;6.45;;;;;;;;;;4996753;28;20105;-82
2022/11/02 19:28:45;;;;;;;9.77;5.85;;;;;;;;;;4996508;28;20401;-84
2022/11/02 19:31:10;;;;;;;8.25;6.03;;;;;;;;;;4993345;28;20089;-86
2022/11/02 19:33:36;;;;;;;9.40;5.85;;;;;;;;;;4978796;28;20386;-86
2022/11/02 19:36:02;;;;;;;11.35;6.50;;;;;;;;;;4985554;28;20065;-84
2022/11/02 19:38:27;;;;;;;13.35;7.53;;;;;;;;;;4993947;28;20038;-84
2022/11/02 19:41:09;;;;;;;15.63;8.43;;;;;;;;;;4996423;28;20109;-83
2022/11/02 19:43:37;;;;;;;14.65;7.18;;;;;;;;;;4995133;28;20073;-85
2022/11/02 19:46:04;;;;;;;13.30;7.88;;;;;;;;;;4984999;28;20019;-84
2022/11/02 19:48:31;;;;;;;27.52;14.13;;;;;;;;;;4976540;28;20053;-85
2022/11/02 19:51:16;;;;;;;44.25;19.35;;;;;;;;;;4976982;28;20166;-85
2022/11/02 19:53:44;;;;;;;71.15;32.70;;;;;;;;;;4976833;28;20054;-86
2022/11/02 19:56:12;;;;;;;43.17;22.50;;;;;;;;;;4976840;28;20035;-83
2022/11/02 19:58:45;;;;;;;37.83;18.38;;;;;;;;;;4976478;28;20026;-86
2022/11/02 20:01:38;;;;;;;30.65;15.60;;;;;;;;;;4978179;28;20023;-86
2022/11/02 20:04:04;;;;;;;31.50;15.10;;;;;;;;;;4958926;28;20027;-86
2022/11/02 20:06:35;;;;;;;24.52;14.10;;;;;;;;;;4976414;28;20035;-82
2022/11/02 20:09:03;;;;;;;18.85;10.70;;;;;;;;;;4976202;28;20033;-87
2022/11/02 20:11:29;;;;;;;14.30;8.85;;;;;;;;;;4976464;28;20470;-83
2022/11/02 20:14:00;;;;;;;14.25;8.18;;;;;;;;;;4976819;28;20023;-82
2022/11/02 20:16:26;;;;;;;11.98;7.70;;;;;;;;;;4976137;28;20023;-81
2022/11/02 20:18:53;;;;;;;13.38;7.65;;;;;;;;;;4977729;28;20029;-83
2022/11/02 20:21:21;;;;;;;19.88;12.25;;;;;;;;;;4983990;28;20078;-86
2022/11/02 20:23:47;;;;;;;17.90;12.40;;;;;;;;;;4975921;28;20030;-84
2022/11/02 20:26:22;;;;;;;15.75;9.43;;;;;;;;;;4976420;28;20462;-86
2022/11/02 20:28:48;;;;;;;12.38;7.25;;;;;;;;;;4976137;28;20031;-86
2022/11/02 20:31:20;;;;;;;10.98;6.30;;;;;;;;;;4958555;28;20409;-83
2022/11/02 20:33:46;;;;;;;10.48;7.65;;;;;;;;;;4975892;28;20485;-85
2022/11/02 20:36:12;;;;;;;17.52;11.20;;;;;;;;;;4976058;28;20537;-85
2022/11/02 20:38:37;;;;;;;15.50;8.75;;;;;;;;;;4975718;28;20077;-86
2022/11/02 20:41:05;;;;;;;11.93;7.13;;;;;;;;;;4975910;28;20030;-85
2022/11/02 20:43:31;;;;;;;13.18;9.23;;;;;;;;;;4975502;28;20034;-85
2022/11/02 20:46:05;;;;;;;15.02;10.13;;;;;;;;;;4975702;28;20524;-84
2022/11/02 20:48:31;;;;;;;11.90;7.90;;;;;;;;;;4975233;28;20077;-86
2022/11/02 20:50:57;;;;;;;14.68;7.70;;;;;;;;;;4975664;28;20023;-85
2022/11/02 20:53:24;;;;;;;13.25;7.60;;;;;;;;;;4975476;28;20074;-86
2022/11/02 20:55:50;;;;;;;11.10;6.63;;;;;;;;;;4958365;28;20023;-85
2022/11/02 20:58:16;;;;;;;11.10;6.15;;;;;;;;;;4975837;28;20023;-85
2022/11/02 21:00:42;;;;;;;7.97;5.72;;;;;;;;;;4975157;28;20085;-85
2022/11/02 21:03:07;;;;;;;10.80;5.50;;;;;;;;;;4957939;28;20022;-85
2022/11/02 21:05:33;;;;;;;10.18;5.22;;;;;;;;;;4975460;28;20474;-86
2022/11/02 21:07:58;;;;;;;9.70;5.20;;;;;;;;;;4975275;28;20031;-85
2022/11/02 21:10:23;;;;;;;6.80;4.40;;;;;;;;;;4975038;28;20027;-82
2022/11/02 21:15:34;;;;;;;9.68;5.55;;;;;;;;;;4975293;28;20030;-85
2022/11/02 21:18:00;;;;;;;10.18;5.90;;;;;;;;;;4957590;28;20061;-82
2022/11/02 21:20:27;;;;;;;8.93;5.85;;;;;;;;;;4974943;28;20058;-83
2022/11/02 21:22:53;;;;;;;14.48;7.35;;;;;;;;;;4957634;28;20039;-86
2022/11/02 21:25:19;;;;;;;13.35;6.65;;;;;;;;;;4975230;28;20031;-85
2022/11/02 21:27:49;;;;;;;9.02;6.28;;;;;;;;;;4974885;28;20108;-85
2022/11/02 21:30:15;;;;;;;10.30;6.38;;;;;;;;;;4974607;28;20411;-85
2022/11/02 21:32:41;;;;;;;10.10;6.03;;;;;;;;;;4974875;28;20038;-85
2022/11/02 21:35:07;;;;;;;12.40;7.18;;;;;;;;;;4975173;28;20030;-85
2022/11/02 21:37:32;;;;;;;15.65;8.38;;;;;;;;;;4974882;28;20081;-85
2022/11/02 21:39:58;;;;;;;19.73;8.90;;;;;;;;;;4975131;28;20031;-86
2022/11/02 21:42:23;;;;;;;15.00;8.23;;;;;;;;;;4974771;28;20061;-85
2022/11/02 21:44:49;;;;;;;11.40;7.95;;;;;;;;;;4957178;28;20034;-86
2022/11/02 21:47:14;;;;;;;14.52;7.63;;;;;;;;;;4974476;28;20073;-85
2022/11/02 21:49:39;;;;;;;9.57;6.85;;;;;;;;;;4974590;28;20474;-85
2022/11/02 21:52:05;;;;;;;10.10;7.18;;;;;;;;;;4974897;28;20034;-86
2022/11/02 21:54:31;;;;;;;11.80;7.57;;;;;;;;;;4974638;28;20062;-86
2022/11/02 21:56:57;;;;;;;12.38;7.38;;;;;;;;;;4974633;28;20022;-86
2022/11/02 21:59:23;;;;;;;10.07;7.03;;;;;;;;;;4974803;28;20029;-85
2022/11/02 22:01:49;;;;;;;12.27;8.32;;;;;;;;;;4975089;28;20105;-85
2022/11/02 22:04:23;;;;;;;12.77;7.72;;;;;;;;;;4976151;28;20031;-84
2022/11/02 22:06:50;;;;;;;12.98;7.50;;;;;;;;;;4972481;28;20026;-86
2022/11/02 22:09:15;;;;;;;13.40;7.68;;;;;;;;;;4974303;28;20474;-85
2022/11/02 22:11:42;;;;;;;11.88;7.65;;;;;;;;;;4974345;28;20034;-85
2022/11/02 22:14:08;;;;;;;11.38;7.55;;;;;;;;;;4973908;28;20067;-85
2022/11/02 22:16:39;;;;;;;13.68;7.88;;;;;;;;;;4974252;28;20026;-85
